Time;durP1;ratioP1;P1;durP2;ratioP2;P2;SDS_P1;SDS_P2;PMS_P1;PMS_P2;Temp;Humidity;BMP_temperature;BMP_pressure;BME280_temperature;BME280_humidity;BME280_pressure;Samples;Min_cycle;Max_cycle;Signal;HPM_P1;HPM_P2
2021/01/29 00:00:36;;;;;;;1.82;0.90;;;;;;;-2.00;91.04;97618.02;1849902;77;21119;-78
2021/01/29 00:03:09;;;;;;;2.02;0.88;;;;;;;-2.00;91.06;97615.46;1855168;77;21206;-78
2021/01/29 00:05:44;;;;;;;2.37;0.82;;;;;;;-1.99;91.06;97614.56;1829050;78;21154;-78
2021/01/29 00:08:11;;;;;;;1.85;0.85;;;;;;;-1.99;91.02;97619.69;1829230;78;21651;-78
2021/01/29 00:10:39;;;;;;;;;;;;;;;-1.98;91.05;97618.82;1831873;77;21162;-78
2021/01/29 00:13:07;;;;;;;1.90;0.50;;;;;;;-1.97;91.02;97619.20;1829329;78;20295;-78
2021/01/29 00:15:34;;;;;;;0.80;0.42;;;;;;;-1.98;91.03;97626.49;1849130;77;22134;-78
2021/01/29 00:18:01;;;;;;;0.88;0.60;;;;;;;-1.99;91.10;97620.52;1863246;77;21479;-78
2021/01/29 00:20:29;;;;;;;2.15;0.70;;;;;;;-1.97;91.18;97612.81;1804218;79;21130;-78
2021/01/29 00:22:58;;;;;;;1.77;0.65;;;;;;;-1.95;91.22;97607.22;1837870;77;21202;-77
2021/01/29 00:25:39;;;;;;;1.50;0.50;;;;;;;-1.94;91.22;97605.04;1829804;77;21104;-78
2021/01/29 00:28:07;;;;;;;0.72;0.50;;;;;;;-1.95;91.17;97612.33;1829422;78;22322;-78
2021/01/29 00:30:36;;;;;;;0.95;0.50;;;;;;;-1.95;91.22;97608.49;1829312;78;21103;-78
2021/01/29 00:33:07;;;;;;;0.72;0.70;;;;;;;-1.96;91.20;97607.66;1829313;78;21574;-79
2021/01/29 00:35:35;;;;;;;0.82;0.53;;;;;;;-1.96;91.25;97612.78;1829352;78;21602;-78
2021/01/29 00:38:05;;;;;;;0.78;0.53;;;;;;;-1.96;91.23;97619.59;1829271;78;21110;-78
2021/01/29 00:40:33;;;;;;;1.10;0.53;;;;;;;-1.94;91.25;97620.39;1862063;77;21256;-78
2021/01/29 00:43:00;;;;;;;0.72;0.40;;;;;;;-1.92;91.24;97619.45;1851091;77;21127;-78
2021/01/29 00:45:31;;;;;;;0.62;0.50;;;;;;;-1.90;91.19;97619.42;1846818;77;21160;-78
2021/01/29 00:47:58;;;;;;;0.82;0.50;;;;;;;-1.93;91.07;97622.05;1838062;77;21143;-78
2021/01/29 00:50:26;;;;;;;0.72;0.40;;;;;;;-1.97;91.01;97625.59;1846883;77;21151;-78
2021/01/29 00:52:53;;;;;;;;;;;;;;;-1.95;90.99;97634.06;1849559;77;22135;-78
2021/01/29 00:55:22;;;;;;;1.32;0.62;;;;;;;-1.98;90.95;97630.33;1829693;77;20298;-78
2021/01/29 00:57:49;;;;;;;1.27;0.50;;;;;;;-2.01;91.06;97626.59;1830100;77;21096;-77
2021/01/29 01:00:19;;;;;;;0.85;0.60;;;;;;;-2.03;90.97;97630.01;1810405;78;21131;-78
2021/01/29 01:02:47;;;;;;;1.07;0.50;;;;;;;-2.04;90.96;97625.79;1792017;80;21189;-78
2021/01/29 01:05:17;;;;;;;1.95;0.50;;;;;;;-2.05;90.95;97620.70;1792085;79;22078;-78
2021/01/29 01:07:44;;;;;;;0.70;0.50;;;;;;;-2.05;90.84;97640.72;1838728;77;21568;-78
2021/01/29 01:10:12;;;;;;;1.90;0.50;;;;;;;-2.07;90.86;97637.39;1844448;77;21159;-78
2021/01/29 01:12:39;;;;;;;;;;;;;;;-2.06;90.90;97632.66;1826439;77;21145;-78
2021/01/29 01:15:14;;;;;;;2.40;0.57;;;;;;;-2.08;90.85;97634.42;1810395;78;20225;-79
2021/01/29 01:17:42;;;;;;;0.75;0.57;;;;;;;-2.09;90.75;97642.16;1775448;80;22195;-79
2021/01/29 01:20:15;;;;;;;1.20;0.62;;;;;;;-2.10;90.98;97630.23;1775268;80;21602;-78
2021/01/29 01:22:42;;;;;;;0.45;0.30;;;;;;;-2.08;91.03;97640.81;1810977;78;21155;-78
2021/01/29 01:25:10;;;;;;;0.62;0.53;;;;;;;-2.08;90.83;97634.42;1830017;77;21228;-78
2021/01/29 01:27:38;;;;;;;0.40;0.35;;;;;;;-2.10;90.84;97631.09;1826319;77;21428;-78
2021/01/29 01:30:09;;;;;;;0.50;0.47;;;;;;;-2.11;90.65;97636.23;1846806;77;21189;-78
2021/01/29 01:32:37;;;;;;;1.00;0.50;;;;;;;-2.14;90.75;97637.16;1844813;77;21548;-78
2021/01/29 01:35:06;;;;;;;0.82;0.50;;;;;;;-2.14;90.90;97631.22;1800299;79;21052;-78
2021/01/29 01:37:33;;;;;;;1.77;0.53;;;;;;;-2.15;90.69;97632.94;1827193;78;21115;-78
2021/01/29 01:40:00;;;;;;;1.65;0.50;;;;;;;-2.13;90.89;97638.00;1799309;79;21202;-78
2021/01/29 01:42:27;;;;;;;0.47;0.37;;;;;;;-2.15;90.85;97632.94;1804761;79;21206;-78
2021/01/29 01:44:54;;;;;;;2.98;0.50;;;;;;;-2.16;90.84;97636.36;1824935;78;21224;-78
2021/01/29 01:47:39;;;;;;;0.75;0.60;;;;;;;-2.14;90.97;97634.61;1852038;77;22357;-78
2021/01/29 01:50:34;;;;;;;1.17;0.53;;;;;;;-2.14;90.92;97638.89;1855734;77;21578;-78
2021/01/29 01:53:06;;;;;;;1.32;0.53;;;;;;;-2.14;90.98;97634.61;1863094;77;21198;-78
2021/01/29 01:55:37;;;;;;;0.50;0.50;;;;;;;-2.12;91.02;97635.41;1839056;77;21258;-78
2021/01/29 01:58:06;;;;;;;0.50;0.33;;;;;;;-2.10;91.05;97632.78;1829530;78;21133;-81
2021/01/29 02:00:34;;;;;;;0.65;0.40;;;;;;;-2.10;91.01;97628.95;1861979;77;21142;-78
2021/01/29 02:03:18;;;;;;;1.45;0.47;;;;;;;-2.10;90.93;97628.53;1863387;77;21166;-78
2021/01/29 02:05:46;;;;;;;0.80;0.37;;;;;;;-2.09;90.95;97625.09;1863298;77;21114;-78
2021/01/29 02:08:15;;;;;;;;;;;;;;;-2.07;91.03;97627.61;1837976;77;21249;-78
2021/01/29 02:10:42;;;;;;;2.15;0.80;;;;;;;-2.09;90.97;97625.09;1829490;78;20236;-78
2021/01/29 02:13:10;;;;;;;0.68;0.55;;;;;;;-2.10;90.96;97618.31;1829729;78;21144;-78
2021/01/29 02:15:44;;;;;;;1.12;0.42;;;;;;;-2.10;90.95;97625.98;1830317;77;21637;-78
2021/01/29 02:18:52;;;;;;;0.80;0.50;;;;;;;-2.10;90.96;97625.98;1799565;78;21134;-78
2021/01/29 02:22:10;;;;;;;2.15;0.75;;;;;;;-2.09;91.06;97619.97;1829462;78;21406;-77
2021/01/29 02:25:29;;;;;;;1.42;0.80;;;;;;;-2.06;91.05;97616.04;1848612;77;21178;-78
2021/01/29 02:27:59;;;;;;;2.42;0.60;;;;;;;-1.99;91.08;97619.69;1846771;77;21587;-78
2021/01/29 02:30:55;;;;;;;1.27;0.70;;;;;;;-1.97;91.04;97626.88;1843464;77;21581;-78
2021/01/29 02:33:42;;;;;;;0.90;0.70;;;;;;;-1.97;91.00;97621.76;1825700;78;21215;-77
2021/01/29 02:36:37;;;;;;;1.05;0.88;;;;;;;-1.97;91.03;97623.87;1846895;77;21349;-77
2021/01/29 02:39:27;;;;;;;1.25;0.80;;;;;;;-1.95;91.03;97623.84;1851722;77;21208;-77
2021/01/29 02:42:17;;;;;;;1.85;0.75;;;;;;;-1.92;91.05;97610.95;1796725;78;22793;-76
2021/01/29 02:44:50;;;;;;;1.35;1.00;;;;;;;-1.94;91.05;97625.50;1759494;81;21559;-76
2021/01/29 02:47:27;;;;;;;1.45;0.80;;;;;;;-1.92;91.07;97621.19;1761045;80;21196;-76
2021/01/29 02:50:23;;;;;;;;;;;;;;;-1.91;91.00;97615.17;1764477;80;21214;-77
2021/01/29 02:53:11;;;;;;;2.60;1.00;;;;;;;-1.90;91.03;97621.98;1772738;79;20228;-77
2021/01/29 02:55:48;;;;;;;1.30;1.10;;;;;;;-1.95;90.93;97622.11;1667239;85;21641;-77
2021/01/29 02:58:32;;;;;;;1.12;1.00;;;;;;;-1.95;90.98;97622.11;1665119;85;21232;-76
2021/01/29 03:01:34;;;;;;;2.10;1.07;;;;;;;-1.90;91.01;97619.42;1838558;77;22385;-78
2021/01/29 03:04:30;;;;;;;1.35;1.00;;;;;;;-1.96;90.98;97611.91;1803576;78;21151;-77
2021/01/29 03:07:08;;;;;;;1.05;0.90;;;;;;;-1.94;91.06;97612.71;1832264;77;21564;-77
2021/01/29 03:10:04;;;;;;;1.52;1.10;;;;;;;-1.93;91.08;97611.81;1831672;77;21157;-77
2021/01/29 03:12:49;;;;;;;1.07;0.90;;;;;;;-1.90;91.10;97606.64;1807438;79;21124;-77
2021/01/29 03:15:29;;;;;;;1.75;0.80;;;;;;;-1.91;91.06;97610.05;1762133;80;21198;-77
2021/01/29 03:18:13;;;;;;;3.00;0.85;;;;;;;-1.89;91.08;97604.46;1733747;81;21119;-77
2021/01/29 03:20:57;;;;;;;1.27;0.60;;;;;;;-1.88;91.08;97594.61;1732101;82;21234;-77
2021/01/29 03:23:37;;;;;;;1.10;0.90;;;;;;;-1.89;91.04;97592.95;1791662;78;21241;-77
2021/01/29 03:26:12;;;;;;;0.78;0.60;;;;;;;-1.88;91.12;97597.17;1778228;80;21128;-78
2021/01/29 03:28:43;;;;;;;1.98;0.80;;;;;;;-1.85;91.14;97597.07;1765564;80;21595;-77
2021/01/29 03:31:13;;;;;;;1.87;0.90;;;;;;;-1.87;91.07;97596.30;1763970;80;21614;-77
2021/01/29 03:33:44;;;;;;;0.80;0.65;;;;;;;-1.87;91.13;97602.70;1782834;78;21408;-77
2021/01/29 03:36:15;;;;;;;1.50;0.80;;;;;;;-1.86;91.15;97591.57;1711183;82;21696;-77
2021/01/29 03:39:03;;;;;;;2.05;0.82;;;;;;;-1.85;91.15;97590.67;1804473;78;21690;-77
2021/01/29 03:41:37;;;;;;;0.72;0.70;;;;;;;-1.84;91.10;97587.25;1765040;80;21200;-78
2021/01/29 03:44:29;;;;;;;1.75;0.90;;;;;;;-1.83;91.10;97579.96;1766249;78;21556;-77
2021/01/29 03:47:07;;;;;;;2.37;0.75;;;;;;;-1.83;91.08;97577.41;1771996;80;21569;-78
2021/01/29 03:49:57;;;;;;;1.95;0.75;;;;;;;-1.80;91.07;97584.98;1825015;77;22329;-77
2021/01/29 03:52:44;;;;;;;1.52;0.80;;;;;;;-1.86;91.10;97586.01;1790619;80;21132;-77
2021/01/29 03:55:46;;;;;;;1.00;0.90;;;;;;;-1.83;91.14;97582.52;1792162;80;21203;-77
2021/01/29 03:58:52;;;;;;;1.30;0.80;;;;;;;-1.83;91.15;97578.68;1810639;78;21604;-78
2021/01/29 04:01:27;;;;;;;1.62;1.02;;;;;;;-1.82;91.15;97581.62;1809391;78;21190;-77
2021/01/29 04:04:08;;;;;;;1.00;0.90;;;;;;;-1.82;91.15;97573.95;1782028;80;21218;-78
2021/01/29 04:06:55;;;;;;;1.00;0.70;;;;;;;-1.82;91.20;97574.81;1781484;78;21179;-77
2021/01/29 04:09:39;;;;;;;1.22;0.62;;;;;;;-1.81;91.16;97575.64;1803541;78;21208;-77
2021/01/29 04:12:06;;;;;;;1.27;0.70;;;;;;;-1.81;91.19;97580.76;1756704;80;21184;-77
2021/01/29 04:14:41;;;;;;;1.02;0.82;;;;;;;-1.80;91.25;97579.86;1725214;81;21119;-77
2021/01/29 04:17:25;;;;;;;0.68;0.50;;;;;;;-1.79;91.27;97581.55;1729309;81;21187;-78
2021/01/29 04:20:03;;;;;;;0.68;0.53;;;;;;;-1.78;91.26;97584.50;1724172;81;21215;-78
2021/01/29 04:22:44;;;;;;;1.12;0.75;;;;;;;-1.71;91.28;97581.28;1849626;76;22677;-77
2021/01/29 04:25:35;;;;;;;1.40;1.30;;;;;;;-1.75;91.30;97583.11;1793080;77;21232;-77
2021/01/29 04:28:10;;;;;;;2.02;1.30;;;;;;;-1.75;91.33;97578.00;1821407;77;21208;-78
2021/01/29 04:30:39;;;;;;;3.17;1.65;;;;;;;-1.74;91.43;97582.22;1806389;78;21177;-78
2021/01/29 04:33:12;;;;;;;2.62;1.47;;;;;;;-1.70;91.54;97588.92;1789885;78;21561;-77
2021/01/29 04:35:40;;;;;;;3.22;1.60;;;;;;;-1.65;91.63;97587.52;1834151;77;21132;-77
2021/01/29 04:38:15;;;;;;;2.10;1.90;;;;;;;-1.61;91.81;97590.34;1821878;77;21194;-79
2021/01/29 04:40:50;;;;;;;8.35;2.10;;;;;;;-1.54;91.96;97593.53;1819365;77;21258;-78
2021/01/29 04:43:41;;;;;;;5.75;2.42;;;;;;;-1.44;92.20;97587.23;1797886;78;21566;-79
2021/01/29 04:46:19;;;;;;;3.33;2.45;;;;;;;-1.37;92.10;97588.72;1801696;77;21095;-79
2021/01/29 04:49:06;;;;;;;6.47;2.70;;;;;;;-1.31;92.05;97592.34;1852819;77;21118;-78
2021/01/29 04:51:50;;;;;;;4.37;2.77;;;;;;;-1.27;92.06;97587.50;1655667;85;21220;-78
2021/01/29 04:55:20;;;;;;;3.90;2.40;;;;;;;-1.19;92.07;97585.52;1823883;77;27938;-78
2021/01/29 04:58:18;;;;;;;5.70;3.05;;;;;;;-1.16;91.93;97600.77;1748553;81;21143;-78
2021/01/29 05:01:34;;;;;;;6.08;2.92;;;;;;;-1.15;91.88;97601.61;1733914;81;22155;-79
2021/01/29 05:04:23;;;;;;;4.42;2.92;;;;;;;-1.14;91.86;97604.12;1747651;81;21167;-80
2021/01/29 05:07:18;;;;;;;8.63;3.15;;;;;;;-1.15;91.89;97605.03;1756823;81;21083;-79
2021/01/29 05:10:05;;;;;;;6.45;2.87;;;;;;;-1.14;91.88;97599.00;1730890;81;21151;-80
2021/01/29 05:13:17;;;;;;;3.12;2.80;;;;;;;-1.14;91.87;97601.57;1736872;81;21203;-78
2021/01/29 05:16:06;;;;;;;4.95;2.77;;;;;;;-1.15;91.85;97598.63;1698414;83;21230;-79
2021/01/29 05:19:02;;;;;;;5.03;2.77;;;;;;;-1.17;91.73;97601.67;1752383;81;21725;-79
2021/01/29 05:21:57;;;;;;;6.87;4.33;;;;;;;-1.20;91.68;97599.22;1742130;81;21480;-79
2021/01/29 05:24:38;;;;;;;8.53;4.00;;;;;;;-1.20;91.70;97600.50;1742376;81;21159;-79
2021/01/29 05:27:22;;;;;;;5.70;3.95;;;;;;;-1.19;91.69;97603.45;1747409;81;21144;-78
2021/01/29 05:30:35;;;;;;;6.60;4.08;;;;;;;-1.20;91.66;97604.34;1742616;81;21386;-80
2021/01/29 05:33:10;;;;;;;5.50;3.08;;;;;;;-1.24;91.54;97602.76;1819674;77;21140;-80
2021/01/29 05:36:09;;;;;;;8.80;3.50;;;;;;;-1.29;91.57;97609.75;1758329;80;21578;-78
2021/01/29 05:39:03;;;;;;;5.05;2.60;;;;;;;-1.29;91.64;97607.19;1717410;82;21154;-78
2021/01/29 05:41:57;;;;;;;5.92;2.60;;;;;;;-1.28;91.68;97606.33;1743937;80;21120;-79
2021/01/29 05:45:11;;;;;;;2.85;1.95;;;;;;;-1.25;91.75;97603.66;1784280;80;21269;-79
2021/01/29 05:47:49;;;;;;;2.85;2.17;;;;;;;-1.22;91.83;97607.39;1748916;80;21143;-78
2021/01/29 05:50:55;;;;;;;4.72;2.52;;;;;;;-1.21;91.83;97611.61;1753801;80;21156;-79
2021/01/29 05:54:00;;;;;;;5.90;2.62;;;;;;;-1.18;91.92;97606.84;1751663;80;21251;-78
2021/01/29 05:56:33;;;;;;;4.87;2.45;;;;;;;-1.16;91.87;97598.22;1736292;81;21198;-79
2021/01/29 05:59:49;;;;;;;4.87;2.52;;;;;;;-1.15;91.88;97605.03;1750168;79;21546;-79
2021/01/29 06:02:43;;;;;;;3.58;2.40;;;;;;;-1.13;91.88;97605.79;1756912;81;21198;-79
2021/01/29 06:05:30;;;;;;;3.77;2.30;;;;;;;-1.14;91.87;97604.12;1773362;79;21152;-78
2021/01/29 06:08:26;;;;;;;3.83;2.47;;;;;;;-1.14;91.90;97613.09;1723866;83;21242;-78
2021/01/29 06:11:32;;;;;;;4.07;2.53;;;;;;;-1.11;91.94;97602.36;1693384;83;21151;-78
2021/01/29 06:14:40;;;;;;;4.08;2.35;;;;;;;-1.11;91.94;97602.36;1689210;83;21214;-78
2021/01/29 06:17:42;;;;;;;4.15;2.12;;;;;;;-1.11;91.93;97608.31;1717207;83;22443;-79
2021/01/29 06:20:32;;;;;;;4.55;2.47;;;;;;;-1.08;92.03;97607.37;1715189;83;21177;-78
2021/01/29 06:23:24;;;;;;;5.80;3.72;;;;;;;-1.07;92.00;97604.74;1708050;83;21273;-79
2021/01/29 06:26:17;;;;;;;9.20;3.62;;;;;;;-1.04;92.00;97603.80;1701323;83;21172;-78
2021/01/29 06:29:24;;;;;;;5.90;3.43;;;;;;;-0.97;92.01;97603.55;1836756;77;27746;-78
2021/01/29 06:32:20;;;;;;;5.20;3.75;;;;;;;-0.94;91.92;97602.61;1821131;77;21540;-77
2021/01/29 06:35:15;;;;;;;4.50;3.00;;;;;;;-0.90;91.85;97611.84;1830762;77;21256;-78
2021/01/29 06:38:10;;;;;;;4.30;3.00;;;;;;;-0.92;91.76;97611.08;1829147;77;21151;-77
2021/01/29 06:41:22;;;;;;;7.12;2.85;;;;;;;-0.92;91.85;97608.52;1838600;77;21600;-78
2021/01/29 06:44:20;;;;;;;3.92;2.65;;;;;;;-0.91;91.90;97611.46;1812977;77;21155;-77
2021/01/29 06:47:15;;;;;;;4.05;2.60;;;;;;;-0.94;91.88;97615.42;1806541;78;21139;-78
2021/01/29 06:50:27;;;;;;;3.77;2.10;;;;;;;-0.91;91.94;97617.87;1845311;77;21254;-85
2021/01/29 06:53:14;;;;;;;5.25;2.70;;;;;;;-0.89;91.98;97616.09;1756581;81;21151;-80
2021/01/29 06:56:18;;;;;;;5.50;2.62;;;;;;;-0.89;92.02;97608.41;1749094;81;21773;-80
2021/01/29 06:59:24;;;;;;;2.55;2.35;;;;;;;-0.87;92.01;97614.30;1776640;78;21583;-86
2021/01/29 07:02:34;;;;;;;5.40;3.12;;;;;;;-0.86;92.02;97619.83;1743670;80;21909;-85
2021/01/29 07:05:33;;;;;;;6.92;3.40;;;;;;;-0.80;92.10;97609.81;1759834;81;21500;-81
2021/01/29 07:08:17;;;;;;;5.55;3.90;;;;;;;-0.77;92.06;97609.25;1742733;81;21703;-86
2021/01/29 07:11:39;;;;;;;4.20;3.47;;;;;;;-0.69;92.17;97603.41;1762874;80;21169;-83
2021/01/29 07:14:47;;;;;;;6.22;3.75;;;;;;;-0.63;92.02;97604.09;1763984;81;21121;-82
2021/01/29 07:17:39;;;;;;;5.40;3.30;;;;;;;-0.62;91.87;97603.19;1760057;81;21162;-80
2021/01/29 07:20:51;;;;;;;4.53;2.55;;;;;;;-0.68;91.70;97612.76;1755267;81;21203;-85
2021/01/29 07:23:52;;;;;;;6.03;2.50;;;;;;;-0.73;91.71;97611.25;1734368;80;21607;-83
2021/01/29 07:26:31;;;;;;;3.83;2.50;;;;;;;-0.73;91.90;97610.83;1770573;80;21732;-80
2021/01/29 07:29:15;;;;;;;6.22;2.72;;;;;;;-0.70;91.98;97606.88;1793406;79;21193;-82
2021/01/29 07:32:09;;;;;;;5.90;2.72;;;;;;;-0.65;91.87;97608.42;1772739;78;21174;-85
2021/01/29 07:34:53;;;;;;;3.70;2.72;;;;;;;-0.59;91.96;97608.19;1671136;84;21262;-84
2021/01/29 07:37:43;;;;;;;3.92;2.62;;;;;;;-0.57;91.87;97611.55;1685869;83;21618;-83
2021/01/29 07:40:36;;;;;;;6.67;2.80;;;;;;;-0.56;91.80;97608.08;1678625;84;21706;-80
2021/01/29 07:43:24;;;;;;;4.28;3.17;;;;;;;-0.58;91.83;97606.04;1683283;83;21254;-80
2021/01/29 07:46:31;;;;;;;8.30;3.75;;;;;;;-0.57;91.80;97608.98;1681045;85;21260;-83
2021/01/29 07:49:29;;;;;;;8.80;5.00;;;;;;;-0.58;91.77;97599.63;1662408;86;22308;-83
2021/01/29 07:52:27;;;;;;;7.87;5.53;;;;;;;-0.56;91.90;97602.95;1691579;84;21242;-81
2021/01/29 07:55:25;;;;;;;20.05;6.58;;;;;;;-0.49;92.05;97599.29;1713189;83;21883;-83
2021/01/29 07:58:40;;;;;;;7.22;4.20;;;;;;;-0.34;92.04;97597.42;1785249;78;22695;-77
2021/01/29 08:01:44;;;;;;;14.75;5.15;;;;;;;-0.32;91.97;97605.91;1761898;79;21167;-79
2021/01/29 08:05:08;;;;;;;7.95;4.95;;;;;;;-0.26;91.98;97596.69;1758785;79;21720;-78
2021/01/29 08:07:45;;;;;;;9.70;6.20;;;;;;;-0.17;91.92;97601.09;1761505;81;21105;-78
2021/01/29 08:10:30;;;;;;;10.13;7.00;;;;;;;-0.07;91.85;97599.86;1760322;81;21948;-78
2021/01/29 08:13:25;;;;;;;7.97;5.53;;;;;;;0.09;91.85;97601.39;1786511;78;22932;-77
2021/01/29 08:15:58;;;;;;;13.08;5.83;;;;;;;0.16;91.71;97601.07;1761674;79;21179;-78
2021/01/29 08:19:06;;;;;;;5.30;4.00;;;;;;;0.20;91.31;97607.77;1782074;79;21179;-79
2021/01/29 08:21:59;;;;;;;5.90;3.45;;;;;;;0.17;91.15;97610.45;1766769;79;21152;-79
2021/01/29 08:24:51;;;;;;;5.10;3.00;;;;;;;0.05;90.96;97612.20;1760581;81;21152;-79
2021/01/29 08:27:57;;;;;;;4.30;3.00;;;;;;;0.02;91.10;97613.61;1780587;79;21679;-81
2021/01/29 08:31:15;;;;;;;4.97;3.17;;;;;;;-0.01;91.02;97611.16;1727526;82;21190;-79
2021/01/29 08:34:18;;;;;;;4.70;3.27;;;;;;;-0.06;90.92;97607.92;1719872;83;21196;-79
2021/01/29 08:37:15;;;;;;;6.12;3.47;;;;;;;-0.06;91.42;97615.63;1707619;83;21607;-80
2021/01/29 08:39:48;;;;;;;7.65;3.30;;;;;;;-0.02;90.89;97619.77;1734993;81;27373;-79
2021/01/29 08:42:47;;;;;;;5.60;3.45;;;;;;;-0.06;90.75;97625.88;1707926;82;21179;-79
2021/01/29 08:45:53;;;;;;;6.37;3.70;;;;;;;-0.09;91.02;97620.88;1718020;82;21160;-79
2021/01/29 08:48:41;;;;;;;3.53;2.93;;;;;;;-0.06;91.10;97628.45;1708266;84;21242;-77
2021/01/29 08:51:27;;;;;;;4.20;2.80;;;;;;;-0.02;91.13;97623.61;1737484;82;21215;-80
2021/01/29 08:54:42;;;;;;;6.05;3.12;;;;;;;0.05;91.12;97628.88;1689589;82;21158;-82
2021/01/29 08:57:47;;;;;;;5.85;3.60;;;;;;;-0.07;90.79;97627.62;1649773;85;21711;-80
2021/01/29 09:00:28;;;;;;;4.30;3.30;;;;;;;-0.08;91.11;97628.98;1655221;85;21241;-80
2021/01/29 09:03:10;;;;;;;4.87;3.40;;;;;;;-0.06;91.02;97625.88;1649351;86;21260;-78
2021/01/29 09:05:41;;;;;;;3.90;3.42;;;;;;;0.02;91.26;97628.17;1655978;85;21214;-81
2021/01/29 09:08:13;;;;;;;5.70;4.40;;;;;;;0.08;91.26;97627.47;1653280;85;21247;-80
2021/01/29 09:10:58;;;;;;;3.80;3.40;;;;;;;0.21;91.26;97627.39;1657942;85;21229;-80
2021/01/29 09:13:28;;;;;;;5.40;3.95;;;;;;;0.33;91.11;97632.94;1654991;84;21242;-81
2021/01/29 09:16:25;;;;;;;8.45;4.40;;;;;;;0.40;90.74;97629.25;1631350;87;21341;-81
2021/01/29 09:19:17;;;;;;;7.37;4.80;;;;;;;0.47;90.68;97625.52;1787214;79;22772;-79
2021/01/29 09:22:24;;;;;;;7.47;4.65;;;;;;;0.37;90.59;97624.24;1759924;81;21190;-79
2021/01/29 09:25:18;;;;;;;9.90;4.45;;;;;;;0.36;90.67;97623.83;1776815;80;21211;-79
2021/01/29 09:28:23;;;;;;;8.00;4.78;;;;;;;0.33;90.70;97626.07;1776402;80;21004;-79
2021/01/29 09:30:58;;;;;;;7.28;5.37;;;;;;;0.37;90.91;97630.66;1778628;79;21587;-78
2021/01/29 09:33:48;;;;;;;6.85;5.17;;;;;;;0.72;91.49;97632.24;1776097;79;21588;-78
2021/01/29 09:36:23;;;;;;;10.28;5.62;;;;;;;1.01;90.96;97631.02;1768754;80;21178;-78
2021/01/29 09:39:01;;;;;;;7.00;5.30;;;;;;;1.34;90.90;97631.32;1771520;80;21167;-81
2021/01/29 09:42:00;;;;;;;7.05;4.97;;;;;;;1.52;90.38;97633.10;1765097;80;21670;-78
2021/01/29 09:44:33;;;;;;;4.95;4.17;;;;;;;1.60;90.12;97628.05;1773843;79;21654;-78
2021/01/29 09:47:04;;;;;;;6.70;4.53;;;;;;;1.75;89.97;97637.22;1786703;79;21124;-77
2021/01/29 09:49:36;;;;;;;7.80;5.20;;;;;;;1.94;90.23;97636.39;1760931;80;21626;-80
2021/01/29 09:52:44;;;;;;;6.53;3.98;;;;;;;2.13;89.43;97635.07;1760485;81;21275;-81
2021/01/29 09:55:32;;;;;;;6.78;4.58;;;;;;;1.90;88.54;97643.86;1760593;81;21208;-80
2021/01/29 09:58:37;;;;;;;8.68;5.10;;;;;;;1.76;88.55;97640.62;1760916;79;21127;-82
2021/01/29 10:01:13;;;;;;;4.70;2.90;;;;;;;1.78;89.51;97641.39;1783741;79;21201;-82
2021/01/29 10:03:57;;;;;;;5.75;3.52;;;;;;;2.33;89.92;97641.43;1774247;80;21187;-81
2021/01/29 10:06:41;;;;;;;5.22;3.20;;;;;;;2.46;89.43;97639.95;1763768;80;21199;-81
2021/01/29 10:09:16;;;;;;;6.37;3.77;;;;;;;2.19;88.26;97633.52;1789893;80;21195;-81
2021/01/29 10:11:57;;;;;;;4.45;3.58;;;;;;;1.96;88.75;97635.42;1769477;80;21626;-80
2021/01/29 10:14:35;;;;;;;5.85;3.85;;;;;;;1.79;88.95;97645.63;1749104;80;21216;-81
2021/01/29 10:17:37;;;;;;;4.58;3.55;;;;;;;2.13;89.80;97635.07;1790852;80;21190;-81
2021/01/29 10:20:28;;;;;;;7.12;4.60;;;;;;;2.39;89.76;97635.16;1778532;80;21213;-80
2021/01/29 10:23:27;;;;;;;7.08;4.42;;;;;;;2.94;90.30;97631.63;1762640;81;21160;-81
2021/01/29 10:26:16;;;;;;;5.95;4.22;;;;;;;2.86;88.49;97638.01;1762472;81;21168;-81
2021/01/29 10:29:14;;;;;;;7.08;4.58;;;;;;;2.45;87.41;97644.70;1762681;81;21655;-81
2021/01/29 10:31:55;;;;;;;8.60;5.58;;;;;;;2.22;88.29;97626.94;1762061;81;21180;-81
2021/01/29 10:34:55;;;;;;;7.47;4.72;;;;;;;2.22;88.63;97625.66;1791030;80;21211;-80
2021/01/29 10:37:33;;;;;;;7.72;5.45;;;;;;;2.56;89.61;97624.05;1788523;80;21155;-79
2021/01/29 10:40:17;;;;;;;10.95;6.60;;;;;;;2.72;86.33;97628.84;1769099;80;21119;-79
2021/01/29 10:42:55;;;;;;;9.13;5.20;;;;;;;2.62;88.53;97637.91;1762106;80;21582;-79
2021/01/29 10:45:39;;;;;;;10.98;6.85;;;;;;;3.07;89.39;97632.69;1768540;80;21151;-79
2021/01/29 10:48:21;;;;;;;10.10;6.45;;;;;;;3.11;88.30;97639.38;1767056;80;21192;-80
2021/01/29 10:50:53;;;;;;;10.05;6.85;;;;;;;2.73;87.57;97645.95;1778015;79;21133;-79
2021/01/29 10:53:23;;;;;;;10.72;6.35;;;;;;;2.24;87.18;97653.43;1763250;80;21212;-78
2021/01/29 10:56:00;;;;;;;14.65;8.23;;;;;;;2.13;88.62;97654.37;1771768;80;21619;-81
2021/01/29 10:59:05;;;;;;;11.08;7.70;;;;;;;2.12;88.84;97652.27;1740025;80;22079;-81
2021/01/29 11:01:39;;;;;;;14.38;9.10;;;;;;;2.35;89.24;97656.80;1729847;80;21225;-82
2021/01/29 11:04:26;;;;;;;11.20;8.05;;;;;;;2.51;88.04;97656.91;1766365;80;21689;-81
2021/01/29 11:07:06;;;;;;;10.38;7.92;;;;;;;2.32;88.01;97652.62;1769259;79;21172;-79
2021/01/29 11:09:39;;;;;;;15.15;7.90;;;;;;;2.44;89.08;97662.36;1783203;80;21147;-78
2021/01/29 11:12:26;;;;;;;11.75;8.78;;;;;;;2.81;89.62;97655.44;1766199;80;21128;-81
2021/01/29 11:15:19;;;;;;;11.93;8.25;;;;;;;3.20;89.95;97642.77;1783326;80;21190;-79
2021/01/29 11:18:20;;;;;;;11.70;7.95;;;;;;;3.81;90.17;97642.64;1766215;80;21596;-82
2021/01/29 11:20:48;;;;;;;13.58;9.18;;;;;;;4.09;87.76;97643.28;1778343;80;21116;-78
2021/01/29 11:23:41;;;;;;;15.25;9.00;;;;;;;3.56;84.52;97645.67;1790732;80;21183;-81
2021/01/29 11:26:29;;;;;;;16.65;9.50;;;;;;;3.01;86.42;97643.31;1769667;80;21206;-83
2021/01/29 11:29:22;;;;;;;14.05;9.23;;;;;;;2.73;87.07;97638.69;1780549;80;21201;-78
2021/01/29 11:31:55;;;;;;;13.60;8.90;;;;;;;2.36;86.97;97640.45;1711927;83;21300;-82
2021/01/29 11:34:30;;;;;;;14.63;9.48;;;;;;;2.19;87.36;97638.67;1708460;83;21179;-81
2021/01/29 11:37:33;;;;;;;14.05;8.60;;;;;;;2.06;88.02;97637.56;1708352;83;21182;-82
2021/01/29 11:40:31;;;;;;;14.78;8.88;;;;;;;1.83;87.32;97642.02;1852237;77;22723;-79
2021/01/29 11:43:06;;;;;;;13.60;7.83;;;;;;;1.62;87.75;97640.41;1815814;78;21548;-80
2021/01/29 11:45:48;;;;;;;11.88;6.95;;;;;;;1.54;87.71;97649.31;1803011;77;21189;-79
2021/01/29 11:48:35;;;;;;;9.75;7.25;;;;;;;1.71;88.83;97650.27;1820117;77;21083;-78
2021/01/29 11:51:35;;;;;;;10.88;7.40;;;;;;;2.25;89.61;97648.68;1835113;77;21124;-78
2021/01/29 11:54:19;;;;;;;11.38;6.80;;;;;;;2.68;89.21;97647.45;1826574;77;21158;-78
2021/01/29 11:57:08;;;;;;;8.95;6.03;;;;;;;2.86;88.42;97648.32;1821366;78;21401;-77
2021/01/29 11:59:51;;;;;;;13.20;6.72;;;;;;;2.64;87.27;97656.25;1817430;79;21191;-78
2021/01/29 12:02:38;;;;;;;12.33;7.08;;;;;;;2.28;87.18;97653.69;1817647;78;21128;-80
2021/01/29 12:05:27;;;;;;;6.58;4.30;;;;;;;2.09;88.12;97656.27;1786311;79;21189;-79
2021/01/29 12:08:08;;;;;;;8.00;4.40;;;;;;;1.93;87.43;97654.87;1817706;78;21191;-80
2021/01/29 12:11:26;;;;;;;5.97;3.62;;;;;;;1.71;87.94;97655.42;1689621;84;21209;-80
2021/01/29 12:14:24;;;;;;;7.42;3.00;;;;;;;1.59;87.93;97658.09;1689803;84;21436;-80
2021/01/29 12:17:07;;;;;;;4.35;2.98;;;;;;;1.44;88.22;97649.77;1838321;76;22232;-81
2021/01/29 12:19:45;;;;;;;4.75;3.05;;;;;;;1.33;88.35;97655.38;1815428;77;21175;-81
2021/01/29 12:22:32;;;;;;;5.80;2.47;;;;;;;1.30;88.09;97658.91;1845563;77;21194;-80
2021/01/29 12:25:19;;;;;;;7.00;3.17;;;;;;;1.50;88.98;97660.62;1846345;77;21692;-80
2021/01/29 12:28:03;;;;;;;6.42;2.83;;;;;;;1.64;88.85;97659.19;1724584;81;21173;-78
2021/01/29 12:30:39;;;;;;;4.87;2.92;;;;;;;1.43;86.82;97661.80;1722479;82;21228;-79
2021/01/29 12:33:11;;;;;;;5.90;3.42;;;;;;;1.20;87.28;97665.33;1716401;82;21314;-81
2021/01/29 12:35:52;;;;;;;6.62;3.62;;;;;;;1.07;87.49;97662.45;1888958;76;22752;-79
2021/01/29 12:38:41;;;;;;;8.30;4.03;;;;;;;0.96;87.73;97659.50;1848802;76;21187;-79
2021/01/29 12:41:40;;;;;;;7.45;4.20;;;;;;;0.75;87.74;97657.80;1854537;77;21521;-80
2021/01/29 12:44:40;;;;;;;7.12;3.90;;;;;;;0.74;88.41;97663.85;1840262;77;21248;-80
2021/01/29 12:47:21;;;;;;;10.00;5.12;;;;;;;0.79;88.39;97661.94;1791727;80;21626;-79
2021/01/29 12:50:19;;;;;;;14.00;6.40;;;;;;;0.84;88.27;97656.13;1791864;80;22410;-80
2021/01/29 12:52:53;;;;;;;14.93;5.50;;;;;;;0.96;88.30;97656.93;1820183;78;21139;-80
2021/01/29 12:55:34;;;;;;;47.38;16.25;;;;;;;1.14;88.54;97667.34;1822201;78;21211;-80
2021/01/29 12:58:06;;;;;;;22.50;7.83;;;;;;;1.24;88.29;97663.48;1791701;80;21649;-80
2021/01/29 13:00:41;;;;;;;22.30;8.95;;;;;;;1.15;87.80;97658.72;1791956;80;21484;-80
2021/01/29 13:03:51;;;;;;;16.27;7.25;;;;;;;1.14;87.70;97664.77;1791753;80;21206;-80